createdAt,value
2022-11-20T00:00:02.902Z,1008.4
2022-11-20T00:15:02.320Z,1008.4
2022-11-20T00:30:02.786Z,1008.3
2022-11-20T00:45:03.314Z,1008.2
2022-11-20T01:00:02.657Z,1008.1
2022-11-20T01:15:03.322Z,1008.2
2022-11-20T01:30:02.545Z,1008.1
2022-11-20T01:45:02.984Z,1007.9
2022-11-20T02:00:02.410Z,1008.0
2022-11-20T02:15:02.862Z,1007.7
2022-11-20T02:30:02.354Z,1007.6
2022-11-20T02:45:02.740Z,1007.5
2022-11-20T03:00:03.352Z,1007.6
2022-11-20T03:15:02.609Z,1007.5
2022-11-20T03:30:03.063Z,1007.3
2022-11-20T03:45:02.500Z,1007.1
2022-11-20T04:00:02.914Z,1007.1
2022-11-20T04:15:02.368Z,1007.0
2022-11-20T04:30:02.785Z,1007.0
2022-11-20T04:45:03.381Z,1007.2
2022-11-20T05:00:02.661Z,1007.1
2022-11-20T05:15:02.104Z,1007.1
2022-11-20T05:45:02.963Z,1006.9
2022-11-20T06:00:02.405Z,1006.7
2022-11-20T06:15:02.856Z,1006.8
2022-11-20T06:30:02.402Z,1006.7
2022-11-20T06:45:02.709Z,1006.8
2022-11-20T07:00:03.401Z,1006.7
2022-11-20T07:15:02.612Z,1006.9
2022-11-20T07:30:03.050Z,1006.7
2022-11-20T07:45:02.496Z,1006.6
2022-11-20T08:00:02.935Z,1006.7
2022-11-20T08:15:02.414Z,1006.5
2022-11-20T08:30:02.789Z,1006.5
2022-11-20T08:45:03.437Z,1006.8
2022-11-20T09:00:06.934Z,1006.7
2022-11-20T09:15:03.146Z,1006.7
2022-11-20T09:30:02.576Z,1006.6
2022-11-20T09:45:02.999Z,1006.5
2022-11-20T10:00:02.464Z,1006.5
2022-11-20T10:15:02.895Z,1006.4
2022-11-20T10:30:02.467Z,1006.3
2022-11-20T10:45:06.033Z,1006.0
2022-11-20T11:00:02.375Z,1005.8
2022-11-20T11:15:02.665Z,1005.8
2022-11-20T11:30:03.104Z,1005.6
2022-11-20T11:45:02.547Z,1005.5
2022-11-20T12:00:02.966Z,1005.3
2022-11-20T12:15:02.463Z,1005.0
2022-11-20T12:30:02.855Z,1005.1
2022-11-20T12:45:02.485Z,1004.9
2022-11-20T13:00:02.730Z,1004.8
2022-11-20T13:15:03.168Z,1004.7
2022-11-20T13:30:02.601Z,1004.5
2022-11-20T13:45:03.024Z,1004.2
2022-11-20T14:00:02.573Z,1003.9
2022-11-20T14:15:02.919Z,1003.5
2022-11-20T14:30:02.611Z,1003.5
2022-11-20T14:45:02.791Z,1003.3
2022-11-20T15:00:03.226Z,1003.1
2022-11-20T15:15:02.648Z,1003.0
2022-11-20T15:30:03.071Z,1003.1
2022-11-20T15:45:02.528Z,1002.9
2022-11-20T16:00:02.951Z,1002.8
2022-11-20T16:15:02.521Z,1002.6
2022-11-20T16:30:02.818Z,1002.2
2022-11-20T16:45:03.278Z,1002.0
2022-11-20T17:00:02.863Z,1001.7
2022-11-20T17:15:02.108Z,1001.8
2022-11-20T17:30:02.564Z,1001.7
2022-11-20T17:45:03.001Z,1001.7
2022-11-20T18:00:02.553Z,1001.4
2022-11-20T18:15:02.861Z,1001.1
2022-11-20T18:30:02.288Z,1000.9
2022-11-20T18:45:02.738Z,1001.0
2022-11-20T19:00:08.317Z,1000.8
2022-11-20T19:15:02.624Z,1000.6
2022-11-20T19:30:03.572Z,1000.4
2022-11-20T19:45:03.559Z,1000.2
2022-11-20T20:00:02.914Z,999.9
2022-11-20T20:15:02.566Z,999.7
2022-11-20T20:30:02.787Z,999.6
2022-11-20T20:45:03.236Z,999.4
2022-11-20T21:00:02.690Z,999.3
2022-11-20T21:15:03.134Z,999.2
2022-11-20T21:30:02.603Z,999.1
2022-11-20T21:45:02.995Z,999.1
2022-11-20T22:00:02.604Z,999.2
2022-11-20T22:15:02.840Z,999.2
2022-11-20T22:30:02.269Z,999.4
2022-11-20T22:45:02.705Z,999.5
2022-11-20T23:00:03.152Z,999.5
2022-11-20T23:15:03.624Z,999.5
2022-11-20T23:30:03.025Z,999.5
2022-11-20T23:45:02.625Z,999.5
